Flight Track Log - Related Links

Times and Time Zones

All times are in EST time to prevent confusion due to time zone crossing. See the CHQ903 flight status page for this flight to view local times or setup timezone preferences in your user account.

Time Position Orientation Groundspeed Altitude Reporting Facility
EST Latitude Longitude Course Direction KTS MPH feet Rate Location/Type
Tue 12:14:16 AM 38.2833 -85.7667 North 226 260 4,800  Level Louisville TRACON
Tue 12:15:25 AM 38.3564 -85.7958 343° North 238 274 8,000 2,791 Climbing Indianapolis Center
Tue 12:16:25 AM 38.4194 -85.8286 338° Northwest 243 280 10,800 2,628 Climbing Indianapolis Center
Tue 12:17:26 AM 38.4833 -85.8106 12° North 252 290 13,300 1,820 Climbing Indianapolis Center
Tue 12:18:00 AM 38.3491 -85.9833 North  Level FlightAware Approximate
Tue 12:18:27 AM 38.5217 -85.7228 61° Northeast 279 321 14,500  Level Indianapolis Center
Tue 12:19:00 AM 38.4606 -85.9833 North  Level FlightAware Approximate
Tue 12:19:27 AM 38.5683 -85.6208 60° Northeast 320 368 15,700  Level Indianapolis Center
Tue 12:20:28 AM 38.6172 -85.5081 61° Northeast 350 403 16,800 1,033 Climbing Indianapolis Center
Tue 12:21:29 AM 38.6631 -85.4056 60° Northeast 370 426 17,800 843 Climbing Indianapolis Center
Tue 12:22:29 AM 38.7164 -85.2833 61° Northeast 387 445 18,500 893 Climbing Indianapolis Center
Tue 12:23:30 AM 38.7714 -85.1578 61° Northeast 399 459 19,600 984 Climbing Indianapolis Center
Tue 12:24:31 AM 38.8050 -85.0122 73° East 425 489 20,500 992 Climbing Indianapolis Center
Tue 12:25:31 AM 38.8456 -84.8336 74° East 433 498 21,600 992 Climbing Indianapolis Center
Tue 12:26:32 AM 38.8792 -84.6794 74° East 441 507 22,500 843 Climbing Indianapolis Center
Tue 12:27:32 AM 38.9125 -84.5433 72° East 454 522 23,300 843 Climbing Indianapolis Center
Tue 12:28:33 AM 38.9742 -84.3986 61° Northeast 461 531 24,200 885 Climbing Indianapolis Center
Tue 12:29:34 AM 39.0381 -84.2553 60° Northeast 462 532 25,100 942 Climbing Indianapolis Center
Tue 12:30:34 AM 39.1153 -84.0775 61° Northeast 469 540 26,100 942 Climbing Indianapolis Center
Tue 12:31:35 AM 39.1803 -83.9300 60° Northeast 474 545 27,000 893 Climbing Indianapolis Center
Tue 12:32:35 AM 39.2456 -83.7822 60° Northeast 474 545 27,900 893 Climbing Indianapolis Center
Tue 12:33:36 AM 39.3094 -83.6339 61° Northeast 474 545 28,800 893 Climbing Indianapolis Center
Tue 12:34:36 AM 39.3736 -83.4839 61° Northeast 477 549 29,700 893 Climbing Indianapolis Center
Tue 12:35:37 AM 39.4378 -83.3344 61° Northeast 477 549 30,600 885 Climbing Indianapolis Center
Tue 12:36:38 AM 39.5019 -83.1831 61° Northeast 480 552 31,500 893 Climbing Indianapolis Center
Tue 12:37:38 AM 39.5669 -83.0292 61° Northeast 486 559 32,400 744 Climbing Indianapolis Center
Tue 12:38:39 AM 39.6328 -82.8731 61° Northeast 493 567 33,000 298 Climbing Indianapolis Center
Tue 12:39:39 AM 39.6997 -82.7144 61° Northeast 498 573 33,000  Level Indianapolis Center
Tue 12:40:40 AM 39.7658 -82.5550 62° Northeast 501 577 33,000  Level Indianapolis Center
Tue 12:41:40 AM 39.8333 -82.3942 61° Northeast 503 579 33,000  Level Indianapolis Center
Tue 12:42:41 AM 39.9006 -82.2317 62° Northeast 508 585 33,000  Level Indianapolis Center
Tue 12:43:41 AM 39.9831 -82.0342 61° Northeast 513 590 33,000  Level Indianapolis Center
Tue 12:44:42 AM 40.0506 -81.8700 62° Northeast 516 594 33,000  Level Indianapolis Center
Tue 12:45:43 AM 40.1153 -81.7092 62° Northeast 516 594 33,000  Level Indianapolis Center
Tue 12:46:43 AM 40.1831 -81.5419 62° Northeast 516 594 33,000  Level Indianapolis Center
Tue 12:47:44 AM 40.2497 -81.3764 62° Northeast 515 593 33,000  Level Indianapolis Center
Tue 12:48:44 AM 40.3164 -81.2108 62° Northeast 514 592 33,000  Level Indianapolis Center
Tue 12:49:45 AM 40.3822 -81.0439 63° Northeast 514 592 33,000  Level Indianapolis Center
Tue 12:50:17 AM 40.4133 -80.9622 63° Northeast 508 585 33,000  Level Cleveland Center
Tue 12:51:17 AM 40.4789 -80.7944 63° Northeast 511 588 33,000  Level Cleveland Center
Tue 12:52:18 AM 40.5447 -80.6278 62° Northeast 511 588 33,000  Level Cleveland Center
Tue 12:53:18 AM 40.6103 -80.4594 63° Northeast 511 588 33,000  Level Cleveland Center
Tue 12:54:18 AM 40.6722 -80.3022 63° Northeast 511 588 33,000  Level Cleveland Center
Tue 12:55:19 AM 40.7353 -80.1356 63° Northeast 511 588 33,000  Level Cleveland Center
Tue 12:56:19 AM 40.8056 -79.9525 63° Northeast 512 589 33,000  Level Cleveland Center
Tue 12:57:19 AM 40.8706 -79.7836 63° Northeast 512 589 33,000  Level Cleveland Center
Tue 12:58:19 AM 40.9342 -79.6150 63° Northeast 512 589 33,000  Level Cleveland Center
Tue 12:59:19 AM 40.9983 -79.4450 63° Northeast 513 590 33,000  Level Cleveland Center
Tue 01:00:20 AM 41.0625 -79.2756 63° Northeast 515 593 33,000  Level Cleveland Center
Tue 01:01:20 AM 41.1247 -79.1056 64° Northeast 514 592 33,000  Level Cleveland Center
Tue 01:02:20 AM 41.1811 -78.9522 64° Northeast 514 592 33,000  Level Cleveland Center
Tue 01:03:20 AM 41.2492 -78.7650 64° Northeast 514 592 33,000  Level Cleveland Center
Tue 01:04:21 AM 41.3125 -78.5958 63° Northeast 514 592 33,000  Level Cleveland Center
Tue 01:05:21 AM 41.3758 -78.4233 64° Northeast 515 593 33,000  Level Cleveland Center
Tue 01:06:21 AM 41.4347 -78.2583 64° Northeast 517 595 33,000  Level Cleveland Center
Tue 01:07:21 AM 41.4967 -78.0847 64° Northeast 517 595 33,000  Level Cleveland Center
Tue 01:07:58 AM 41.5436 -77.9575 64° Northeast 519 597 33,000  Level New York Center
Tue 01:08:58 AM 41.6058 -77.7850 64° Northeast 520 598 33,000  Level New York Center
Tue 01:09:58 AM 41.6667 -77.6108 65° Northeast 520 598 33,000  Level New York Center
Tue 01:10:59 AM 41.7283 -77.4369 65° Northeast 521 600 33,000  Level New York Center
Tue 01:11:59 AM 41.7878 -77.2617 65° Northeast 525 604 33,000  Level New York Center
Tue 01:12:59 AM 41.8483 -77.0883 65° Northeast 521 600 33,000  Level New York Center
Tue 01:13:59 AM 41.9089 -76.9119 65° Northeast 523 602 33,000  Level New York Center
Tue 01:14:59 AM 41.9700 -76.7367 65° Northeast 525 604 33,000  Level New York Center
Tue 01:16:00 AM 42.0297 -76.5600 65° Northeast 525 604 33,000  Level New York Center
Tue 01:17:00 AM 42.0742 -76.3717 72° East 536 617 33,000 -100 Level New York Center
Tue 01:18:00 AM 42.0886 -76.1722 84° East 539 620 32,800 -1,250 Descending New York Center
Tue 01:19:00 AM 42.1039 -75.9767 84° East 535 616 30,500 -2,300 Descending New York Center
Tue 01:20:00 AM 42.1194 -75.7947 83° East 497 572 28,200 -2,281 Descending New York Center
Tue 01:21:01 AM 42.1294 -75.6197 86° East 471 542 25,900 -2,281 Descending New York Center
Tue 01:22:01 AM 42.1433 -75.4350 84° East 491 565 23,600 -2,250 Descending New York Center
Tue 01:23:01 AM 42.1567 -75.2642 84° East 483 556 21,400 -2,250 Descending New York Center
Tue 01:24:01 AM 42.1667 -75.0922 85° East 466 536 19,100 -1,700 Descending New York Center
Tue 01:25:01 AM 42.1814 -74.9072 84° East 447 514 18,000 -545 Descending New York Center
Tue 01:26:02 AM 42.1933 -74.7425 84° East 447 514 18,000  Level New York Center
Tue 01:27:02 AM 42.2031 -74.5744 85° East 449 517 18,000  Level New York Center
Tue 01:28:02 AM 42.2136 -74.4036 85° East 455 524 18,000  Level New York Center
Tue 01:29:02 AM 42.2231 -74.2331 86° East 455 524 18,000 -200 Level New York Center
Tue 01:30:02 AM 42.2331 -74.0619 85° East 456 525 17,600 -898 Descending New York Center
Tue 01:31:29 AM 42.2458 -73.8289 86° East 432 497 15,800 -1,248 Descending Boston Center
Tue 01:32:07 AM 42.2531 -73.7242 85° East 408 470 15,000 -1,200 Descending Boston Center
Tue 01:32:14 AM 42.2533 -73.7125 88° East 407 468 14,900 -818 Descending Boston Center
Tue 01:32:29 AM 42.2539 -73.6875 88° East 415 478 14,700 -1,200 Descending Boston Center
Tue 01:33:14 AM 42.2606 -73.5636 86° East 390 449 13,700 -1,200 Descending Boston Center
Tue 01:33:29 AM 42.2619 -73.5378 86° East 408 470 13,500 -1,180 Descending Boston Center
Tue 01:34:15 AM 42.2342 -73.4286 109° East 380 437 12,500 -1,200 Descending Boston Center
Tue 01:34:29 AM 42.2217 -73.4111 134° Southeast 392 451 12,300 -1,300 Descending Boston Center
Tue 01:35:15 AM 42.1683 -73.3081 125° Southeast 369 425 11,200 -1,200 Descending Boston Center
Tue 01:35:29 AM 42.1536 -73.2833 129° Southeast 372 428 11,100 -197 Descending Boston Center
Tue 01:36:16 AM 42.1078 -73.2017 127° Southeast 360 414 11,000 -100 Descending Boston Center
Tue 01:36:29 AM 42.0958 -73.1772 123° Southeast 355 409 11,000  Level Boston Center
Tue 01:37:17 AM 42.0494 -73.0961 128° Southeast 347 399 11,000  Level Boston Center
Tue 01:37:29 AM 42.0375 -73.0708 122° Southeast 353 406 11,000  Level Boston Center
Tue 01:38:17 AM 41.9900 -72.9844 126° Southeast 367 422 11,000  Level Boston Center
Tue 01:38:29 AM 41.9761 -72.9600 127° Southeast 369 425 11,000 -689 Level Boston Center
Tue 01:39:18 AM 41.9328 -72.8828 127° Southeast 318 366 10,300 -900 Descending Boston Center
Tue 01:39:29 AM 41.9222 -72.8622 125° Southeast 323 372 10,100 -2,000 Descending Boston Center
Tue 01:40:18 AM 41.8706 -72.8283 154° Southeast 275 316 8,300 -2,262 Descending Boston Center
Tue 01:40:30 AM 41.8567 -72.8364 203° Southwest 272 313 7,800 -2,361 Descending Boston Center
Tue 01:41:19 AM 41.8125 -72.8797 216° Southwest 262 302 5,900 -2,300 Descending Boston Center
Tue 01:41:30 AM 41.7983 -72.8783 176° South 255 293 5,500 -2,262 Descending Boston Center
Tue 01:42:20 AM 41.7781 -72.8153 113° Southeast 242 278 3,600 -2,300 Descending Boston Center
Tue 01:42:30 AM 41.7867 -72.8058 39° Northeast 243 280 3,200 -1,100 Descending Boston Center
Tue 01:43:20 AM 41.8317 -72.7742 28° Northeast 203 234 2,500 -700 Descending Boston Center
Tue 01:43:30 AM 41.8392 -72.7689 28° Northeast 210 242 2,500 -492 Level Boston Center
Tue 01:44:21 AM 41.8689 -72.7500 25° Northeast 130 150 2,000 -700 Descending Boston Center
Tue 01:44:30 AM 41.8753 -72.7472 18° North 140 161 1,800 -900 Descending Boston Center
Tue 01:45:21 AM 41.9019 -72.7358 18° North 113 130 1,100 -700 Descending Boston Center
Tue 01:45:30 AM 41.9067 -72.7311 37° Northeast 123 142 1,100 -689 Level Boston Center
Tue 01:46:22 AM 41.9283 -72.7019 45° Northeast 125 144 400 -800 Descending Boston Center
Tue 01:46:30 AM 41.9319 -72.6972 44° Northeast 126 145 300 -750 Descending Boston Center

Login

Don't have an account? Register now (free) for customized features, flight alerts, and more!